createdAt,value
2018-12-07T00:00:46.769Z,12.42
2018-12-07T00:01:46.774Z,12.39
2018-12-07T00:02:46.776Z,12.39
2018-12-07T00:03:46.770Z,12.42
2018-12-07T00:04:46.774Z,12.42
2018-12-07T00:05:46.789Z,12.41
2018-12-07T00:06:46.773Z,12.42
2018-12-07T00:07:46.783Z,12.32
2018-12-07T00:08:46.774Z,12.32
2018-12-07T00:09:46.785Z,12.34
2018-12-07T00:10:46.787Z,12.37
2018-12-07T00:11:46.786Z,12.37
2018-12-07T00:12:46.781Z,12.37
2018-12-07T00:13:46.784Z,12.34
2018-12-07T00:14:46.804Z,12.31
2018-12-07T00:15:46.803Z,12.32
2018-12-07T00:16:46.790Z,12.31
2018-12-07T00:17:46.790Z,12.31
2018-12-07T00:18:46.794Z,12.24
2018-12-07T00:19:48.109Z,12.31
2018-12-07T00:20:46.793Z,12.34
2018-12-07T00:21:46.799Z,12.32
2018-12-07T00:22:46.795Z,12.23
2018-12-07T00:23:46.790Z,12.28
2018-12-07T00:24:46.785Z,12.35
2018-12-07T00:25:46.778Z,12.27
2018-12-07T00:26:46.790Z,12.32
2018-12-07T00:27:46.789Z,12.24
2018-12-07T00:28:46.789Z,12.19
2018-12-07T00:29:46.785Z,12.34
2018-12-07T00:30:46.793Z,12.24
2018-12-07T00:31:46.784Z,12.24
2018-12-07T00:32:46.791Z,12.27
2018-12-07T00:33:46.797Z,12.32
2018-12-07T00:34:46.783Z,12.27
2018-12-07T00:35:46.796Z,12.21
2018-12-07T00:36:46.810Z,12.23
2018-12-07T00:37:46.802Z,12.27
2018-12-07T00:38:46.799Z,12.29
2018-12-07T00:39:46.801Z,12.29
2018-12-07T00:40:46.789Z,12.20
2018-12-07T00:41:46.796Z,12.24
2018-12-07T00:42:46.802Z,12.27
2018-12-07T00:43:46.800Z,12.28
2018-12-07T00:44:48.349Z,12.28
2018-12-07T00:45:46.806Z,12.32
2018-12-07T00:46:46.797Z,12.28
2018-12-07T00:47:46.793Z,12.32
2018-12-07T00:48:46.800Z,12.29
2018-12-07T00:49:46.804Z,12.28
2018-12-07T00:50:46.797Z,12.31
2018-12-07T00:51:46.802Z,12.28
2018-12-07T00:52:46.794Z,12.28
2018-12-07T00:53:46.802Z,12.27
2018-12-07T00:54:46.814Z,12.28
2018-12-07T00:55:46.796Z,12.27
2018-12-07T00:56:46.795Z,12.27
2018-12-07T00:57:46.796Z,12.19
2018-12-07T00:58:46.804Z,12.23
2018-12-07T00:59:46.804Z,12.28
2018-12-07T01:00:46.810Z,12.27
2018-12-07T01:01:46.813Z,12.17
2018-12-07T01:02:46.802Z,12.20
2018-12-07T01:03:46.814Z,12.21
2018-12-07T01:04:46.816Z,12.35
2018-12-07T01:05:46.802Z,12.28
2018-12-07T01:06:46.801Z,12.31
2018-12-07T01:07:46.817Z,12.28
2018-12-07T01:08:46.817Z,12.32
2018-12-07T01:09:46.813Z,12.27
2018-12-07T01:10:46.810Z,12.31
2018-12-07T01:11:46.811Z,12.37
2018-12-07T01:12:46.812Z,12.28
2018-12-07T01:13:46.818Z,12.32
2018-12-07T01:14:46.815Z,12.29
2018-12-07T01:15:46.804Z,12.34
2018-12-07T01:16:46.819Z,12.28
2018-12-07T01:17:46.818Z,12.29
2018-12-07T01:18:46.814Z,12.16
2018-12-07T01:19:46.815Z,12.31
2018-12-07T01:20:46.810Z,12.31
2018-12-07T01:21:46.819Z,12.24
2018-12-07T01:22:46.809Z,12.28
2018-12-07T01:23:46.830Z,12.31
2018-12-07T01:24:46.839Z,12.24
2018-12-07T01:25:46.813Z,12.24
2018-12-07T01:26:46.804Z,12.31
2018-12-07T01:27:46.810Z,12.21
2018-12-07T01:28:46.809Z,12.29
2018-12-07T01:29:46.813Z,12.29
2018-12-07T01:30:46.813Z,12.29
2018-12-07T01:31:46.827Z,12.24
2018-12-07T01:32:46.840Z,12.23
2018-12-07T01:33:46.818Z,12.27
2018-12-07T01:34:46.826Z,12.20
2018-12-07T01:35:46.817Z,12.20
2018-12-07T01:36:46.823Z,12.21
2018-12-07T01:37:46.850Z,12.29
2018-12-07T01:38:46.820Z,12.28
2018-12-07T01:39:46.812Z,12.24
2018-12-07T01:40:46.809Z,12.16
2018-12-07T01:41:46.822Z,12.19
2018-12-07T01:42:46.825Z,12.24
2018-12-07T01:43:46.819Z,12.19
2018-12-07T01:44:46.826Z,12.13
2018-12-07T01:45:46.826Z,12.20
2018-12-07T01:46:46.820Z,12.21
2018-12-07T01:47:46.822Z,12.24
2018-12-07T01:48:46.814Z,12.19
2018-12-07T01:49:46.814Z,12.23
2018-12-07T01:50:46.830Z,12.21
2018-12-07T01:51:46.817Z,12.27
2018-12-07T01:52:46.823Z,12.27
2018-12-07T01:53:46.838Z,12.21
2018-12-07T01:54:46.833Z,12.24
2018-12-07T01:55:46.826Z,12.17
2018-12-07T01:56:46.821Z,12.24
2018-12-07T01:57:46.824Z,12.19
2018-12-07T01:58:46.819Z,12.16
2018-12-07T01:59:46.822Z,12.19
2018-12-07T02:00:46.833Z,12.16
2018-12-07T02:01:46.823Z,12.21
2018-12-07T02:02:46.826Z,12.13
2018-12-07T02:03:46.823Z,12.21
2018-12-07T02:04:46.834Z,12.16
2018-12-07T02:05:46.847Z,12.14
2018-12-07T02:06:46.825Z,12.10
2018-12-07T02:07:46.825Z,12.13
2018-12-07T02:08:46.828Z,12.19
2018-12-07T02:09:46.840Z,12.13
2018-12-07T02:10:46.839Z,12.12
2018-12-07T02:11:46.834Z,12.13
2018-12-07T02:12:46.864Z,12.13
2018-12-07T02:13:46.859Z,12.17
2018-12-07T02:14:46.829Z,12.19
2018-12-07T02:15:46.836Z,12.16
2018-12-07T02:16:46.825Z,12.19
2018-12-07T02:17:46.840Z,12.09
2018-12-07T02:18:46.844Z,12.13
2018-12-07T02:19:46.850Z,12.14
2018-12-07T02:20:46.837Z,12.10
2018-12-07T02:21:46.831Z,12.13
2018-12-07T02:22:46.839Z,12.04
2018-12-07T02:23:46.841Z,12.10
2018-12-07T02:24:46.841Z,12.10
2018-12-07T02:25:46.860Z,12.07
2018-12-07T02:26:46.836Z,12.13
2018-12-07T02:27:46.827Z,12.14
2018-12-07T02:28:46.835Z,12.13
2018-12-07T02:29:46.831Z,12.09
2018-12-07T02:30:46.833Z,12.10
2018-12-07T02:31:46.839Z,12.09
2018-12-07T02:32:46.838Z,12.07
2018-12-07T02:33:46.833Z,12.14
2018-12-07T02:34:46.845Z,12.14
2018-12-07T02:35:46.845Z,12.17
2018-12-07T02:36:46.860Z,12.20
2018-12-07T02:37:46.840Z,12.17
2018-12-07T02:38:46.845Z,12.17
2018-12-07T02:39:46.838Z,12.21
2018-12-07T02:40:46.843Z,12.20
2018-12-07T02:41:46.845Z,12.21
2018-12-07T02:42:46.855Z,12.21
2018-12-07T02:43:46.860Z,12.19
2018-12-07T02:44:46.866Z,12.21
2018-12-07T02:45:46.838Z,12.14
2018-12-07T02:46:46.846Z,12.23
2018-12-07T02:47:46.845Z,12.13
2018-12-07T02:48:46.847Z,12.14
2018-12-07T02:49:46.847Z,12.20
2018-12-07T02:50:46.839Z,12.20
2018-12-07T02:51:46.841Z,12.13
2018-12-07T02:52:46.852Z,12.16
2018-12-07T02:53:46.844Z,12.14
2018-12-07T02:54:46.852Z,12.17
2018-12-07T02:55:46.838Z,12.12
2018-12-07T02:56:46.853Z,12.13
2018-12-07T02:57:46.848Z,12.28
2018-12-07T02:58:46.849Z,12.21
2018-12-07T02:59:46.843Z,12.16
2018-12-07T03:00:46.847Z,12.16
2018-12-07T03:01:46.894Z,12.16
2018-12-07T03:02:46.867Z,12.17
2018-12-07T03:03:46.860Z,12.12
2018-12-07T03:04:46.852Z,12.16
2018-12-07T03:05:46.848Z,12.20
2018-12-07T03:06:46.850Z,12.16
2018-12-07T03:07:46.850Z,12.14
2018-12-07T03:08:46.848Z,12.28
2018-12-07T03:09:46.847Z,12.21
2018-12-07T03:10:46.850Z,12.27
2018-12-07T03:11:46.857Z,12.20
2018-12-07T03:12:46.857Z,12.23
2018-12-07T03:13:46.851Z,12.13
2018-12-07T03:14:46.845Z,12.24
2018-12-07T03:15:46.847Z,12.23
2018-12-07T03:16:46.856Z,12.24
2018-12-07T03:17:46.857Z,12.20
2018-12-07T03:18:46.849Z,12.24
2018-12-07T03:19:46.857Z,12.13
2018-12-07T03:20:46.855Z,12.21
2018-12-07T03:21:46.854Z,12.14
2018-12-07T03:22:46.868Z,12.13
2018-12-07T03:23:46.847Z,12.19
2018-12-07T03:24:46.861Z,12.17
2018-12-07T03:25:46.856Z,12.19
2018-12-07T03:26:46.859Z,12.16
2018-12-07T03:27:46.859Z,12.14
2018-12-07T03:28:46.852Z,12.16
2018-12-07T03:29:46.852Z,12.27
2018-12-07T03:30:46.873Z,12.19
2018-12-07T03:31:46.860Z,12.19
2018-12-07T03:32:46.868Z,12.14
2018-12-07T03:33:46.873Z,12.20
2018-12-07T03:34:46.858Z,12.24
2018-12-07T03:35:46.872Z,12.16
2018-12-07T03:36:46.868Z,12.20
2018-12-07T03:37:46.854Z,12.20
2018-12-07T03:38:46.857Z,12.31
2018-12-07T03:39:46.872Z,12.23
2018-12-07T03:40:46.875Z,12.27
2018-12-07T03:41:46.857Z,12.23
2018-12-07T03:42:46.859Z,12.29
2018-12-07T03:43:46.873Z,12.23
2018-12-07T03:44:46.859Z,12.20
2018-12-07T03:45:46.865Z,12.19
2018-12-07T03:46:46.866Z,12.23
2018-12-07T03:47:46.865Z,12.16
2018-12-07T03:48:46.861Z,12.17
2018-12-07T03:49:46.875Z,12.21
2018-12-07T03:50:46.870Z,12.17
2018-12-07T03:51:46.867Z,12.27
2018-12-07T03:52:46.869Z,12.21
2018-12-07T03:53:46.870Z,12.19
2018-12-07T03:54:46.864Z,12.28
2018-12-07T03:55:46.867Z,12.21
2018-12-07T03:56:46.864Z,12.24
2018-12-07T03:57:46.872Z,12.24
2018-12-07T03:58:46.866Z,12.23
2018-12-07T03:59:46.868Z,12.19
2018-12-07T04:00:46.872Z,12.17
2018-12-07T04:01:46.873Z,12.16
2018-12-07T04:02:46.873Z,12.17
2018-12-07T04:03:46.871Z,12.16
2018-12-07T04:04:46.868Z,12.20
2018-12-07T04:05:46.884Z,12.12
2018-12-07T04:06:46.874Z,12.24
2018-12-07T04:07:46.895Z,12.28
2018-12-07T04:08:46.895Z,12.28
2018-12-07T04:09:46.873Z,12.28
2018-12-07T04:10:46.879Z,12.16
2018-12-07T04:11:46.872Z,12.28
2018-12-07T04:12:46.880Z,12.20
2018-12-07T04:13:46.876Z,12.19
2018-12-07T04:14:46.870Z,12.21
2018-12-07T04:15:46.878Z,12.23
2018-12-07T04:16:46.879Z,12.14
2018-12-07T04:17:46.883Z,12.19
2018-12-07T04:18:46.895Z,12.20
2018-12-07T04:19:46.876Z,12.17
2018-12-07T04:20:46.880Z,12.24
2018-12-07T04:21:46.882Z,12.23
2018-12-07T04:22:46.889Z,12.20
2018-12-07T04:23:46.892Z,12.14
2018-12-07T04:24:46.874Z,12.23
2018-12-07T04:25:46.877Z,12.19
2018-12-07T04:26:46.899Z,12.28
2018-12-07T04:27:46.885Z,12.23
2018-12-07T04:28:46.884Z,12.17
2018-12-07T04:29:46.873Z,12.24
2018-12-07T04:30:46.883Z,12.20
2018-12-07T04:31:46.883Z,12.27
2018-12-07T04:32:46.883Z,12.21
2018-12-07T04:33:46.883Z,12.23
2018-12-07T04:34:46.904Z,12.20
2018-12-07T04:35:46.887Z,12.27
2018-12-07T04:36:46.909Z,12.13
2018-12-07T04:37:46.902Z,12.28
2018-12-07T04:38:46.896Z,12.28
2018-12-07T04:39:46.887Z,12.19
2018-12-07T04:40:46.890Z,12.24
2018-12-07T04:41:46.883Z,12.28
2018-12-07T04:42:46.891Z,12.20
2018-12-07T04:43:46.889Z,12.19
2018-12-07T04:44:46.889Z,12.32
2018-12-07T04:45:46.885Z,12.29
2018-12-07T04:46:46.892Z,12.32
2018-12-07T04:47:46.896Z,12.21
2018-12-07T04:48:46.895Z,12.27
2018-12-07T04:49:46.893Z,12.19
2018-12-07T04:50:46.900Z,12.21
2018-12-07T04:51:46.886Z,12.23
2018-12-07T04:52:46.888Z,12.21
2018-12-07T04:53:46.889Z,12.27
2018-12-07T04:54:46.913Z,12.23
2018-12-07T04:55:46.907Z,12.20
2018-12-07T04:56:46.893Z,12.24
2018-12-07T04:57:46.897Z,12.29
2018-12-07T04:58:46.904Z,12.21
2018-12-07T04:59:46.914Z,12.16
2018-12-07T05:00:46.895Z,12.29
2018-12-07T05:01:46.897Z,12.16
2018-12-07T05:02:46.895Z,12.16
2018-12-07T05:03:46.887Z,12.27
2018-12-07T05:04:46.897Z,12.23
2018-12-07T05:05:46.901Z,12.32
2018-12-07T05:06:46.899Z,12.28
2018-12-07T05:07:46.894Z,12.28
2018-12-07T05:08:46.895Z,12.29
2018-12-07T05:09:46.894Z,12.21
2018-12-07T05:10:46.909Z,12.16
2018-12-07T05:11:46.901Z,12.28
2018-12-07T05:12:46.905Z,12.21
2018-12-07T05:13:46.910Z,12.28
2018-12-07T05:14:46.900Z,12.27
2018-12-07T05:15:46.901Z,12.23
2018-12-07T05:16:46.909Z,12.27
2018-12-07T05:17:46.917Z,12.23
2018-12-07T05:18:46.910Z,12.21
2018-12-07T05:19:46.900Z,12.27
2018-12-07T05:20:46.905Z,12.28
2018-12-07T05:21:46.907Z,12.23
2018-12-07T05:22:46.908Z,12.24
2018-12-07T05:23:46.908Z,12.21
2018-12-07T05:24:46.907Z,12.23
2018-12-07T05:25:46.899Z,12.23
2018-12-07T05:26:46.905Z,12.29
2018-12-07T05:27:46.902Z,12.31
2018-12-07T05:28:46.923Z,12.27
2018-12-07T05:29:46.905Z,12.21
2018-12-07T05:30:46.898Z,12.32
2018-12-07T05:31:46.901Z,12.31
2018-12-07T05:32:46.901Z,12.31
2018-12-07T05:33:46.935Z,12.29
2018-12-07T05:34:46.906Z,12.31
2018-12-07T05:35:46.916Z,12.24
2018-12-07T05:36:46.916Z,12.31
2018-12-07T05:37:46.928Z,12.31
2018-12-07T05:38:46.914Z,12.38
2018-12-07T05:39:46.920Z,12.29
2018-12-07T05:40:46.928Z,12.38
2018-12-07T05:41:46.907Z,12.35
2018-12-07T05:42:46.903Z,12.35
2018-12-07T05:43:46.918Z,12.29
2018-12-07T05:44:46.919Z,12.34
2018-12-07T05:45:46.918Z,12.27
2018-12-07T05:46:46.920Z,12.28
2018-12-07T05:47:46.931Z,12.32
2018-12-07T05:48:46.908Z,12.34
2018-12-07T05:49:46.923Z,12.35
2018-12-07T05:50:46.922Z,12.31
2018-12-07T05:51:46.916Z,12.24
2018-12-07T05:52:46.912Z,12.32
2018-12-07T05:53:46.925Z,12.41
2018-12-07T05:54:46.927Z,12.23
2018-12-07T05:55:46.921Z,12.34
2018-12-07T05:56:46.926Z,12.34
2018-12-07T05:57:46.918Z,12.31
2018-12-07T05:58:46.924Z,12.34
2018-12-07T05:59:46.931Z,12.42
2018-12-07T06:00:46.923Z,12.45
2018-12-07T06:01:46.925Z,12.23
2018-12-07T06:02:46.934Z,12.29
2018-12-07T06:03:46.933Z,12.38
2018-12-07T06:04:46.937Z,12.41
2018-12-07T06:05:46.935Z,12.41
2018-12-07T06:06:46.921Z,12.39
2018-12-07T06:07:46.927Z,12.42
2018-12-07T06:08:46.925Z,12.46
2018-12-07T06:09:46.926Z,12.42
2018-12-07T06:10:46.918Z,12.39
2018-12-07T06:11:46.919Z,12.41
2018-12-07T06:12:46.930Z,12.42
2018-12-07T06:13:46.931Z,12.45
2018-12-07T06:14:46.933Z,12.45
2018-12-07T06:15:46.925Z,12.41
2018-12-07T06:16:46.921Z,12.45
2018-12-07T06:17:46.928Z,12.47
2018-12-07T06:18:46.926Z,12.42
2018-12-07T06:19:46.943Z,12.35
2018-12-07T06:20:46.928Z,12.42
2018-12-07T06:21:46.933Z,12.42
2018-12-07T06:22:46.922Z,12.47
2018-12-07T06:23:46.933Z,12.49
2018-12-07T06:24:46.936Z,12.31
2018-12-07T06:25:46.928Z,12.37
2018-12-07T06:26:46.925Z,12.37
2018-12-07T06:27:46.933Z,12.45
2018-12-07T06:28:46.930Z,12.41
2018-12-07T06:29:46.932Z,12.41
2018-12-07T06:30:46.932Z,12.38
2018-12-07T06:31:46.924Z,12.38
2018-12-07T06:32:46.933Z,12.37
2018-12-07T06:33:46.943Z,12.47
2018-12-07T06:34:46.939Z,12.46
2018-12-07T06:35:46.950Z,12.37
2018-12-07T06:36:46.946Z,12.35
2018-12-07T06:37:46.946Z,12.52
2018-12-07T06:38:46.949Z,12.42
2018-12-07T06:39:46.932Z,12.38
2018-12-07T06:40:46.945Z,12.42
2018-12-07T06:41:46.932Z,12.38
2018-12-07T06:42:46.936Z,12.41
2018-12-07T06:43:46.929Z,12.38
2018-12-07T06:44:46.936Z,12.38
2018-12-07T06:45:46.942Z,12.42
2018-12-07T06:46:46.929Z,12.45
2018-12-07T06:47:46.947Z,12.45
2018-12-07T06:48:46.947Z,12.45
2018-12-07T06:49:46.947Z,12.42
2018-12-07T06:50:46.951Z,12.34
2018-12-07T06:51:46.942Z,12.42
2018-12-07T06:52:46.964Z,12.41
2018-12-07T06:53:46.938Z,12.45
2018-12-07T06:54:46.942Z,12.37
2018-12-07T06:55:46.948Z,12.46
2018-12-07T06:56:46.940Z,12.38
2018-12-07T06:57:48.242Z,12.41
2018-12-07T06:58:46.942Z,12.32
2018-12-07T06:59:46.956Z,12.41
2018-12-07T07:00:46.944Z,12.38
2018-12-07T07:01:46.964Z,12.38
2018-12-07T07:02:46.957Z,12.46
2018-12-07T07:03:46.943Z,12.42
2018-12-07T07:04:46.951Z,12.39
2018-12-07T07:05:46.942Z,12.42
2018-12-07T07:06:48.552Z,12.38
2018-12-07T07:07:46.947Z,12.39
2018-12-07T07:08:46.961Z,12.35
2018-12-07T07:09:46.949Z,12.46
2018-12-07T07:10:46.973Z,12.45
2018-12-07T07:11:46.974Z,12.37
2018-12-07T07:12:46.948Z,12.39
2018-12-07T07:13:46.952Z,12.39
2018-12-07T07:14:46.952Z,12.41
2018-12-07T07:15:46.962Z,12.34
2018-12-07T07:16:46.947Z,12.37
2018-12-07T07:17:46.964Z,12.41
2018-12-07T07:18:46.945Z,12.46
2018-12-07T07:19:46.955Z,12.39
2018-12-07T07:20:46.967Z,12.38
2018-12-07T07:21:46.981Z,12.45
2018-12-07T07:22:46.974Z,12.39
2018-12-07T07:23:46.959Z,12.35
2018-12-07T07:24:46.949Z,12.41
2018-12-07T07:25:46.955Z,12.46
2018-12-07T07:26:46.959Z,12.35
2018-12-07T07:27:46.960Z,12.37
2018-12-07T07:28:46.952Z,12.29
2018-12-07T07:29:46.957Z,12.28
2018-12-07T07:30:46.954Z,12.38
2018-12-07T07:31:46.965Z,12.39
2018-12-07T07:32:46.948Z,12.42
2018-12-07T07:33:46.949Z,12.39
2018-12-07T07:34:46.966Z,12.41
2018-12-07T07:35:46.955Z,12.41
2018-12-07T07:36:46.963Z,12.32
2018-12-07T07:37:46.959Z,12.32
2018-12-07T07:38:46.968Z,12.38
2018-12-07T07:39:46.964Z,12.38
2018-12-07T07:40:46.977Z,12.38
2018-12-07T07:41:46.959Z,12.35
2018-12-07T07:42:46.960Z,12.32
2018-12-07T07:43:46.971Z,12.42
2018-12-07T07:44:46.974Z,12.37
2018-12-07T07:45:46.962Z,12.39
2018-12-07T07:46:46.959Z,12.42
2018-12-07T07:47:46.963Z,12.45
2018-12-07T07:48:46.965Z,12.34
2018-12-07T07:49:46.966Z,12.41
2018-12-07T07:50:46.970Z,12.41
2018-12-07T07:51:46.965Z,12.42
2018-12-07T07:52:46.979Z,12.39
2018-12-07T07:53:46.969Z,12.28
2018-12-07T07:54:46.964Z,12.28
2018-12-07T07:55:46.988Z,12.28
2018-12-07T07:56:48.083Z,12.23
2018-12-07T07:57:46.977Z,12.37
2018-12-07T07:58:46.971Z,12.29
2018-12-07T07:59:46.980Z,12.41
2018-12-07T08:00:46.979Z,12.38
2018-12-07T08:01:46.974Z,12.35
2018-12-07T08:02:46.983Z,12.39
2018-12-07T08:03:46.974Z,12.41
2018-12-07T08:04:46.968Z,12.38
2018-12-07T08:05:46.973Z,12.41
2018-12-07T08:06:46.983Z,12.42
2018-12-07T08:07:46.973Z,12.41
2018-12-07T08:08:46.975Z,12.46
2018-12-07T08:09:46.976Z,12.46
2018-12-07T08:10:46.974Z,12.38
2018-12-07T08:11:46.982Z,12.52
2018-12-07T08:12:46.975Z,12.56
2018-12-07T08:13:46.989Z,12.52
2018-12-07T08:14:46.982Z,12.54
2018-12-07T08:15:46.980Z,12.57
2018-12-07T08:16:46.977Z,12.56
2018-12-07T08:17:46.977Z,12.52
2018-12-07T08:18:46.988Z,12.52
2018-12-07T08:19:47.001Z,12.53
2018-12-07T08:20:46.981Z,12.52
2018-12-07T08:21:46.975Z,12.39
2018-12-07T08:22:46.980Z,12.47
2018-12-07T08:23:46.980Z,12.50
2018-12-07T08:24:46.978Z,12.52
2018-12-07T08:25:46.974Z,12.50
2018-12-07T08:26:46.981Z,12.41
2018-12-07T08:27:46.976Z,12.41
2018-12-07T08:28:46.986Z,12.37
2018-12-07T08:29:46.992Z,12.42
2018-12-07T08:30:46.981Z,12.35
2018-12-07T08:31:46.985Z,12.42
2018-12-07T08:32:46.977Z,12.42
2018-12-07T08:33:46.983Z,12.49
2018-12-07T08:34:47.003Z,12.45
2018-12-07T08:35:47.278Z,12.46
2018-12-07T08:36:47.004Z,12.34
2018-12-07T08:37:47.005Z,12.37
2018-12-07T08:38:46.995Z,12.29
2018-12-07T08:39:47.001Z,12.41
2018-12-07T08:40:46.995Z,12.38
2018-12-07T08:41:46.998Z,12.38
2018-12-07T08:42:46.997Z,12.49
2018-12-07T08:43:46.998Z,12.41
2018-12-07T08:44:46.998Z,12.42
2018-12-07T08:45:46.998Z,12.42
2018-12-07T08:46:46.999Z,12.41
2018-12-07T08:47:46.990Z,12.41
2018-12-07T08:48:46.990Z,12.52
2018-12-07T08:49:47.006Z,12.42
2018-12-07T08:50:47.007Z,12.50
2018-12-07T08:51:47.000Z,12.39
2018-12-07T08:52:46.993Z,12.38
2018-12-07T08:53:47.009Z,12.54
2018-12-07T08:54:46.995Z,12.53
2018-12-07T08:55:46.993Z,12.56
2018-12-07T08:56:46.992Z,12.59
2018-12-07T08:57:47.014Z,12.37
2018-12-07T08:58:46.988Z,12.54
2018-12-07T08:59:47.007Z,12.39
2018-12-07T09:00:47.007Z,12.52
2018-12-07T09:01:47.006Z,12.50
2018-12-07T09:02:47.002Z,12.39
2018-12-07T09:03:46.998Z,12.39
2018-12-07T09:04:47.002Z,12.45
2018-12-07T09:05:47.011Z,12.39
2018-12-07T09:06:47.009Z,12.37
2018-12-07T09:07:47.015Z,12.42
2018-12-07T09:08:47.017Z,12.41
2018-12-07T09:09:47.012Z,12.42
2018-12-07T09:10:47.012Z,12.38
2018-12-07T09:11:47.009Z,12.39
2018-12-07T09:12:46.999Z,12.46
2018-12-07T09:13:47.006Z,12.38
2018-12-07T09:14:46.998Z,12.41
2018-12-07T09:15:47.005Z,12.45
2018-12-07T09:16:47.014Z,12.46
2018-12-07T09:17:48.752Z,12.41
2018-12-07T09:18:47.012Z,12.39
2018-12-07T09:19:47.003Z,12.42
2018-12-07T09:20:53.784Z,12.42
2018-12-07T09:21:47.019Z,12.42
2018-12-07T09:22:47.020Z,12.46
2018-12-07T09:23:49.671Z,12.39
2018-12-07T09:24:47.011Z,12.46
2018-12-07T09:25:47.009Z,12.45
2018-12-07T09:26:47.005Z,12.39
2018-12-07T09:27:47.010Z,12.42
2018-12-07T09:28:47.037Z,12.49
2018-12-07T09:29:47.001Z,12.42
2018-12-07T09:30:47.007Z,12.39
2018-12-07T09:31:47.042Z,12.45
2018-12-07T09:32:47.000Z,12.41
2018-12-07T09:33:47.010Z,12.32
2018-12-07T09:34:47.008Z,12.38
2018-12-07T09:35:47.013Z,12.39
2018-12-07T09:36:47.011Z,12.38
2018-12-07T09:37:47.013Z,12.38
2018-12-07T09:38:47.008Z,12.41
2018-12-07T09:39:47.009Z,12.41
2018-12-07T09:40:47.042Z,12.28
2018-12-07T09:41:47.038Z,12.32
2018-12-07T09:42:47.031Z,12.38
2018-12-07T09:43:47.066Z,12.34
2018-12-07T09:44:47.012Z,12.35
2018-12-07T09:45:47.021Z,12.38
2018-12-07T09:46:47.021Z,12.24
2018-12-07T09:47:47.010Z,12.31
2018-12-07T09:48:47.026Z,12.35
2018-12-07T09:49:47.021Z,12.35
2018-12-07T09:50:47.025Z,12.34
2018-12-07T09:51:47.019Z,12.29
2018-12-07T09:52:47.023Z,12.38
2018-12-07T09:53:47.040Z,12.24
2018-12-07T09:54:47.013Z,12.35
2018-12-07T09:55:47.022Z,12.28
2018-12-07T09:56:47.024Z,12.38
2018-12-07T09:57:47.023Z,12.41
2018-12-07T09:58:47.040Z,12.35
2018-12-07T09:59:47.050Z,12.38
2018-12-07T10:00:47.024Z,12.34
2018-12-07T10:01:47.030Z,12.39
2018-12-07T10:02:47.030Z,12.35
2018-12-07T10:03:47.017Z,12.35
2018-12-07T10:04:47.039Z,12.34
2018-12-07T10:05:47.048Z,12.41
2018-12-07T10:06:47.045Z,12.35
2018-12-07T10:07:47.028Z,12.39
2018-12-07T10:08:47.053Z,12.37
2018-12-07T10:09:47.042Z,12.42
2018-12-07T10:10:47.019Z,12.34
2018-12-07T10:11:47.038Z,12.34
2018-12-07T10:12:47.024Z,12.45
2018-12-07T10:13:47.047Z,12.38
2018-12-07T10:14:47.032Z,12.46
2018-12-07T10:15:47.047Z,12.37
2018-12-07T10:16:47.032Z,12.41
2018-12-07T10:17:47.034Z,12.42
2018-12-07T10:18:47.031Z,12.45
2018-12-07T10:19:47.050Z,12.47
2018-12-07T10:20:47.054Z,12.39
2018-12-07T10:21:47.048Z,12.41
2018-12-07T10:22:47.032Z,12.38
2018-12-07T10:23:47.033Z,12.46
2018-12-07T10:24:47.048Z,12.37
2018-12-07T10:25:47.060Z,12.39
2018-12-07T10:26:47.035Z,12.42
2018-12-07T10:27:47.028Z,12.31
2018-12-07T10:28:47.027Z,12.32
2018-12-07T10:29:47.028Z,12.42
2018-12-07T10:30:47.031Z,12.38
2018-12-07T10:31:47.039Z,12.37
2018-12-07T10:32:47.054Z,12.35
2018-12-07T10:33:47.052Z,12.39
2018-12-07T10:34:47.098Z,12.29
2018-12-07T10:35:47.063Z,12.28
2018-12-07T10:36:47.036Z,12.34
2018-12-07T10:37:47.040Z,12.39
2018-12-07T10:38:47.039Z,12.41
2018-12-07T10:39:47.095Z,12.31
2018-12-07T10:40:47.075Z,12.35
2018-12-07T10:41:47.033Z,12.32
2018-12-07T10:42:47.046Z,12.37
2018-12-07T10:43:47.035Z,12.39
2018-12-07T10:44:47.046Z,12.39
2018-12-07T10:45:47.046Z,12.41
2018-12-07T10:46:47.059Z,12.39
2018-12-07T10:47:50.284Z,12.37
2018-12-07T10:48:47.046Z,12.41
2018-12-07T10:49:47.070Z,12.47
2018-12-07T10:50:47.068Z,12.39
2018-12-07T10:51:47.047Z,12.46
2018-12-07T10:52:47.049Z,12.37
2018-12-07T10:53:47.045Z,12.41
2018-12-07T10:54:47.036Z,12.50
2018-12-07T10:55:47.051Z,12.54
2018-12-07T10:56:47.051Z,12.57
2018-12-07T10:57:47.042Z,12.49
2018-12-07T10:58:47.037Z,12.54
2018-12-07T10:59:47.063Z,12.56
2018-12-07T11:00:47.066Z,12.68
2018-12-07T11:01:47.055Z,12.52
2018-12-07T11:02:47.071Z,12.56
2018-12-07T11:03:47.059Z,12.52
2018-12-07T11:04:47.072Z,12.67
2018-12-07T11:05:47.050Z,12.68
2018-12-07T11:06:47.051Z,12.54
2018-12-07T11:07:47.069Z,12.56
2018-12-07T11:08:47.044Z,12.54
2018-12-07T11:09:47.048Z,12.53
2018-12-07T11:10:47.082Z,12.52
2018-12-07T11:11:47.052Z,12.53
2018-12-07T11:12:47.054Z,12.70
2018-12-07T11:13:47.052Z,12.57
2018-12-07T11:14:47.082Z,12.57
2018-12-07T11:15:47.068Z,12.60
2018-12-07T11:16:47.062Z,12.60
2018-12-07T11:17:47.077Z,12.62
2018-12-07T11:18:47.052Z,12.64
2018-12-07T11:19:47.050Z,12.60
2018-12-07T11:20:47.061Z,12.65
2018-12-07T11:21:47.050Z,12.60
2018-12-07T11:22:47.075Z,12.59
2018-12-07T11:23:47.069Z,12.62
2018-12-07T11:24:47.055Z,12.54
2018-12-07T11:25:47.053Z,12.67
2018-12-07T11:26:47.054Z,12.60
2018-12-07T11:27:47.055Z,12.60
2018-12-07T11:28:47.068Z,12.62
2018-12-07T11:29:47.056Z,12.62
2018-12-07T11:30:47.075Z,12.64
2018-12-07T11:31:47.066Z,12.53
2018-12-07T11:32:47.059Z,12.64
2018-12-07T11:33:47.074Z,12.56
2018-12-07T11:34:47.054Z,12.59
2018-12-07T11:35:47.098Z,12.62
2018-12-07T11:36:47.077Z,12.65
2018-12-07T11:37:47.063Z,12.64
2018-12-07T11:38:47.069Z,12.53
2018-12-07T11:39:47.060Z,12.56
2018-12-07T11:40:47.057Z,12.56
2018-12-07T11:41:47.062Z,12.60
2018-12-07T11:42:47.060Z,12.59
2018-12-07T11:43:47.074Z,12.60
2018-12-07T11:44:47.075Z,12.53
2018-12-07T11:45:47.074Z,12.54
2018-12-07T11:46:47.080Z,12.53
2018-12-07T11:47:47.088Z,12.65
2018-12-07T11:48:47.084Z,12.60
2018-12-07T11:49:47.100Z,12.62
2018-12-07T11:50:47.066Z,12.74
2018-12-07T11:51:47.066Z,12.62
2018-12-07T11:52:47.071Z,12.62
2018-12-07T11:53:47.092Z,12.65
2018-12-07T11:54:47.102Z,12.74
2018-12-07T11:55:47.098Z,12.62
2018-12-07T11:56:47.080Z,12.64
2018-12-07T11:57:47.111Z,12.60
2018-12-07T11:58:47.111Z,12.62
2018-12-07T11:59:47.066Z,12.71
2018-12-07T12:00:47.069Z,12.72
2018-12-07T12:01:47.064Z,12.62
2018-12-07T12:02:47.076Z,12.71
2018-12-07T12:03:47.072Z,12.72
2018-12-07T12:04:47.098Z,12.85
2018-12-07T12:05:47.088Z,12.78
2018-12-07T12:06:47.078Z,12.77
2018-12-07T12:07:47.103Z,12.79
2018-12-07T12:08:47.079Z,12.79
2018-12-07T12:09:47.078Z,12.77
2018-12-07T12:10:47.237Z,12.95
2018-12-07T12:11:47.091Z,12.82
2018-12-07T12:12:47.091Z,12.85
2018-12-07T12:13:47.076Z,12.83
2018-12-07T12:14:47.110Z,12.97
2018-12-07T12:15:47.091Z,12.97
2018-12-07T12:16:47.103Z,12.97
2018-12-07T12:17:47.079Z,12.93
2018-12-07T12:18:47.085Z,12.93
2018-12-07T12:19:47.086Z,12.92
2018-12-07T12:20:47.087Z,12.96
2018-12-07T12:21:47.081Z,13.00
2018-12-07T12:22:47.099Z,13.03
2018-12-07T12:23:53.445Z,12.86
2018-12-07T12:24:47.085Z,12.89
2018-12-07T12:25:47.085Z,12.90
2018-12-07T12:26:47.095Z,12.86
2018-12-07T12:27:47.112Z,12.83
2018-12-07T12:28:47.096Z,12.95
2018-12-07T12:29:47.094Z,12.97
2018-12-07T12:30:47.101Z,12.86
2018-12-07T12:31:47.084Z,12.90
2018-12-07T12:32:47.143Z,12.93
2018-12-07T12:33:47.093Z,12.93
2018-12-07T12:34:47.094Z,12.97
2018-12-07T12:35:47.093Z,12.87
2018-12-07T12:36:47.096Z,12.95
2018-12-07T12:37:47.102Z,12.97
2018-12-07T12:38:47.097Z,13.01
2018-12-07T12:39:47.096Z,12.86
2018-12-07T12:40:47.106Z,12.89
2018-12-07T12:41:47.126Z,12.95
2018-12-07T12:42:47.098Z,12.96
2018-12-07T12:43:47.095Z,13.01
2018-12-07T12:44:47.106Z,12.95
2018-12-07T12:45:47.095Z,12.95
2018-12-07T12:46:47.092Z,13.04
2018-12-07T12:47:47.106Z,12.97
2018-12-07T12:48:47.089Z,12.97
2018-12-07T12:49:47.095Z,12.96
2018-12-07T12:50:47.113Z,13.00
2018-12-07T12:51:47.104Z,12.95
2018-12-07T12:52:47.100Z,12.89